メンフィス の空港の天気 - METARとTAF

メンフィス国際空港 ( KMEM / MEM ) - アメリカ テネシー州メンフィス
飛行場実況気象(Metar)
観測時間02/05 14:54 CST (02/05 20:54 UTC)
風向・風速西北西 3m/s
視程10km以上
天気現象
全天の4割程度の雲 雲底高度 1220m
気温15.6℃
湿度57%
気圧1020.4hPa
METARKMEM 052054Z 30006KT 10SM SCT040 16/07 A3013 RMK AO2 SLP204 T01560072 56011
過去の天気等 Google飛行場航空写真 Wunderground天気予報

過去48時間のMETAR

飛行場予報(TAF)
発表時間: 2/05 14:58 CST (2/05 20:58 UTC)
予報対象時間: 5日15時 CST ~ 6日18時 CST
風向・風速西南西 3m/s
視程10km以上
なし
5日18時 CST から
風向・風速南南西 2m/s
視程10km以上
なし
6日4時 CST ~ 6日7時 CST に一時的に
視程1610m
天気現象もや
全天の4割程度の雲 雲底高度 60m
6日9時 CST から
風向・風速南 5m/s
視程10km以上
少しの雲 雲底高度 300m
6日12時 CST から
風向・風速南 6m/s 瞬間風速 9m/s
視程10km以上
少しの雲 雲底高度 1220m
KMEM 052058Z 0521/0624 25006KT P6SM SKC
FM060000 21003KT P6SM SKC
TEMPO 0610/0613 1SM BR SCT002
FM061500 17010KT P6SM FEW010
FM061800 18011G17KT P6SM FEW040